createdAt,value
2019-01-21T00:00:56.224Z,98203.52
2019-01-21T00:02:57.821Z,98206.83
2019-01-21T00:04:59.432Z,98210.97
2019-01-21T00:07:01.059Z,98209.20
2019-01-21T00:09:02.679Z,98207.44
2019-01-21T00:11:04.263Z,98207.39
2019-01-21T00:13:05.886Z,98210.69
2019-01-21T00:15:07.598Z,98214.03
2019-01-21T00:17:09.194Z,98210.99
2019-01-21T00:19:10.785Z,98212.98
2019-01-21T00:21:12.382Z,98209.87
2019-01-21T00:23:13.980Z,98208.55
2019-01-21T00:25:15.613Z,98210.24
2019-01-21T00:27:17.224Z,98211.52
2019-01-21T00:29:18.826Z,98217.05
2019-01-21T00:31:20.441Z,98217.38
2019-01-21T00:33:22.056Z,98222.11
2019-01-21T00:35:23.644Z,98214.39
2019-01-21T00:37:25.266Z,98222.91
2019-01-21T00:39:26.867Z,98219.45
2019-01-21T00:41:28.478Z,98217.31
2019-01-21T00:43:30.064Z,98221.16
2019-01-21T00:45:31.667Z,98217.75
2019-01-21T00:47:33.280Z,98224.61
2019-01-21T00:49:34.932Z,98249.32
2019-01-21T00:51:36.530Z,98220.78
2019-01-21T00:53:38.126Z,98221.62
2019-01-21T00:55:39.721Z,98220.55
2019-01-21T00:57:41.332Z,98214.11
2019-01-21T00:59:42.965Z,98223.47
2019-01-21T01:01:44.615Z,98211.98
2019-01-21T01:03:46.200Z,98217.98
2019-01-21T01:05:47.802Z,98216.77
2019-01-21T01:07:49.421Z,98223.64
2019-01-21T01:09:51.027Z,98219.02
2019-01-21T01:11:52.626Z,98221.58
2019-01-21T01:13:54.218Z,98216.09
2019-01-21T01:15:55.859Z,98213.22
2019-01-21T01:17:57.459Z,98222.55
2019-01-21T01:19:59.044Z,98230.25
2019-01-21T01:22:00.703Z,98221.32
2019-01-21T01:24:02.302Z,98223.02
2019-01-21T01:26:03.884Z,98224.36
2019-01-21T01:28:05.492Z,98218.40
2019-01-21T01:30:07.090Z,98221.42
2019-01-21T01:32:08.705Z,98215.94
2019-01-21T01:34:10.288Z,98222.33
2019-01-21T01:36:11.897Z,98223.13
2019-01-21T01:38:13.490Z,98229.52
2019-01-21T01:40:15.085Z,98225.63
2019-01-21T01:42:16.705Z,98220.95
2019-01-21T01:44:18.334Z,98194.14
2019-01-21T01:46:19.936Z,98220.26
2019-01-21T01:48:21.540Z,98213.09
2019-01-21T01:50:23.160Z,98221.22
2019-01-21T01:52:24.811Z,98216.10
2019-01-21T01:54:26.395Z,98220.16
2019-01-21T01:56:28.027Z,98219.56
2019-01-21T01:58:29.636Z,98223.19
2019-01-21T02:00:31.251Z,98220.85
2019-01-21T02:02:32.893Z,98219.09
2019-01-21T02:04:34.484Z,98220.38
2019-01-21T02:06:36.072Z,98218.61
2019-01-21T02:08:37.670Z,98221.59
2019-01-21T02:10:39.288Z,98218.23
2019-01-21T02:12:40.889Z,98195.05
2019-01-21T02:14:42.538Z,98217.37
2019-01-21T02:16:44.169Z,98219.95
2019-01-21T02:18:45.779Z,98217.83
2019-01-21T02:20:47.381Z,98216.59
2019-01-21T02:22:49.018Z,98219.63
2019-01-21T02:24:50.684Z,98221.77
2019-01-21T02:26:52.282Z,98219.69
2019-01-21T02:28:53.881Z,98215.48
2019-01-21T02:30:55.478Z,98222.29
2019-01-21T02:32:57.090Z,98218.46
2019-01-21T02:34:58.746Z,98219.76
2019-01-21T02:37:00.393Z,98227.44
2019-01-21T02:39:02.005Z,98216.80
2019-01-21T02:41:03.621Z,98217.59
2019-01-21T02:43:05.248Z,98218.03
2019-01-21T02:45:06.915Z,98221.39
2019-01-21T02:47:08.521Z,98218.77
2019-01-21T02:49:10.136Z,98221.71
2019-01-21T02:51:11.728Z,98219.58
2019-01-21T02:53:13.361Z,98182.92
2019-01-21T02:55:14.969Z,98216.54
2019-01-21T02:57:16.590Z,98218.56
2019-01-21T02:59:18.207Z,98216.42
2019-01-21T03:01:19.822Z,98214.19
2019-01-21T03:03:21.468Z,98219.44
2019-01-21T03:05:23.074Z,98218.42
2019-01-21T03:07:24.678Z,98218.37
2019-01-21T03:09:26.342Z,98220.02
2019-01-21T03:11:27.963Z,98209.30
2019-01-21T03:13:30.705Z,98215.69
2019-01-21T03:15:32.385Z,98208.86
2019-01-21T03:17:33.990Z,98212.59
2019-01-21T03:19:35.586Z,98209.13
2019-01-21T03:21:37.214Z,98212.47
2019-01-21T03:23:38.857Z,98213.75
2019-01-21T03:25:40.467Z,98214.18
2019-01-21T03:27:42.098Z,98214.18
2019-01-21T03:29:43.713Z,98215.52
2019-01-21T03:31:45.319Z,98217.27
2019-01-21T03:33:46.939Z,98221.97
2019-01-21T03:35:48.544Z,98222.81
2019-01-21T03:37:50.186Z,98222.03
2019-01-21T03:39:51.782Z,98221.17
2019-01-21T03:41:53.394Z,98217.81
2019-01-21T03:43:55.042Z,98218.26
2019-01-21T03:45:56.664Z,98216.66
2019-01-21T03:47:58.271Z,98220.02
2019-01-21T03:49:59.926Z,98218.79
2019-01-21T03:52:01.593Z,98215.86
2019-01-21T03:54:03.210Z,98215.49
2019-01-21T03:56:04.809Z,98216.78
2019-01-21T03:58:06.410Z,98210.08
2019-01-21T04:00:08.010Z,98216.05
2019-01-21T04:02:09.661Z,98214.81
2019-01-21T04:04:11.256Z,98213.59
2019-01-21T04:06:12.887Z,98213.18
2019-01-21T04:08:14.484Z,98216.64
2019-01-21T04:10:16.096Z,98216.68
2019-01-21T04:12:17.760Z,98214.98
2019-01-21T04:14:19.358Z,98216.70
2019-01-21T04:16:20.972Z,98218.88
2019-01-21T04:18:24.678Z,98214.61
2019-01-21T04:20:24.222Z,98219.67
2019-01-21T04:22:25.832Z,98219.13
2019-01-21T04:24:27.420Z,98215.77
2019-01-21T04:26:29.023Z,98212.75
2019-01-21T04:28:30.669Z,98219.18
2019-01-21T04:30:32.318Z,98221.73
2019-01-21T04:32:33.931Z,98217.78
2019-01-21T04:34:35.573Z,98217.31
2019-01-21T04:36:37.188Z,98214.70
2019-01-21T04:38:38.790Z,98216.84
2019-01-21T04:40:40.441Z,98214.39
2019-01-21T04:42:42.064Z,98225.52
2019-01-21T04:44:43.675Z,98221.91
2019-01-21T04:46:45.326Z,98219.47
2019-01-21T04:48:46.941Z,98218.20
2019-01-21T04:50:48.563Z,98221.32
2019-01-21T04:52:50.215Z,98221.38
2019-01-21T04:54:51.841Z,98222.66
2019-01-21T04:56:53.479Z,98221.33
2019-01-21T04:58:55.193Z,98222.14
2019-01-21T05:00:56.815Z,98223.03
2019-01-21T05:02:58.428Z,98224.31
2019-01-21T05:05:00.069Z,98220.73
2019-01-21T05:07:01.660Z,98225.32
2019-01-21T05:09:03.282Z,98227.45
2019-01-21T05:11:04.939Z,98219.41
2019-01-21T05:13:06.555Z,98224.09
2019-01-21T05:15:08.169Z,98229.64
2019-01-21T05:17:09.811Z,98226.23
2019-01-21T05:19:11.458Z,98225.00
2019-01-21T05:21:13.056Z,98220.84
2019-01-21T05:23:14.674Z,98226.48
2019-01-21T05:25:16.317Z,98225.92
2019-01-21T05:27:17.971Z,98221.19
2019-01-21T05:29:19.589Z,98219.85
2019-01-21T05:31:21.194Z,98221.87
2019-01-21T05:33:22.793Z,98228.56
2019-01-21T05:35:24.384Z,98225.10
2019-01-21T05:37:25.986Z,98220.73
2019-01-21T05:39:27.600Z,98212.59
2019-01-21T05:41:29.237Z,98212.44
2019-01-21T05:43:30.833Z,98215.78
2019-01-21T05:45:32.434Z,98217.05
2019-01-21T05:47:34.042Z,98218.64
2019-01-21T05:49:35.655Z,98220.18
2019-01-21T05:51:37.276Z,98220.06
2019-01-21T05:53:38.887Z,98220.48
2019-01-21T05:55:40.526Z,98225.98
2019-01-21T05:57:42.126Z,98227.69
2019-01-21T05:59:43.722Z,98233.59
2019-01-21T06:01:45.362Z,98228.48
2019-01-21T06:03:46.972Z,98225.55
2019-01-21T06:05:48.561Z,98226.84
2019-01-21T06:07:50.190Z,98228.17
2019-01-21T06:09:51.779Z,98226.51
2019-01-21T06:11:53.385Z,98221.03
2019-01-21T06:13:55.037Z,98222.80
2019-01-21T06:15:56.647Z,98222.00
2019-01-21T06:17:58.255Z,98227.91
2019-01-21T06:19:59.887Z,98223.27
2019-01-21T06:22:01.481Z,98224.17
2019-01-21T06:24:03.092Z,98222.97
2019-01-21T06:26:04.691Z,98229.35
2019-01-21T06:28:06.304Z,98230.70
2019-01-21T06:30:07.907Z,98231.64
2019-01-21T06:32:09.511Z,98237.62
2019-01-21T06:34:11.161Z,98232.18
2019-01-21T06:36:12.756Z,98237.72
2019-01-21T06:38:14.368Z,98233.90
2019-01-21T06:40:15.994Z,98230.95
2019-01-21T06:42:17.591Z,98239.09
2019-01-21T06:44:19.181Z,98236.98
2019-01-21T06:46:20.788Z,98237.83
2019-01-21T06:48:22.404Z,98234.91
2019-01-21T06:50:24.041Z,98238.31
2019-01-21T06:52:25.638Z,98251.52
2019-01-21T06:54:27.262Z,98242.63
2019-01-21T06:56:29.605Z,98247.25
2019-01-21T06:58:30.544Z,98248.95
2019-01-21T07:00:32.155Z,98248.47
2019-01-21T07:02:35.108Z,98245.38
2019-01-21T07:04:35.468Z,98242.66
2019-01-21T07:06:37.086Z,98242.20
2019-01-21T07:08:38.728Z,98246.34
2019-01-21T07:10:40.321Z,98247.57
2019-01-21T07:12:41.958Z,98247.87
2019-01-21T07:14:43.549Z,98247.28
2019-01-21T07:16:45.156Z,98241.37
2019-01-21T07:18:46.794Z,98250.70
2019-01-21T07:20:48.399Z,98249.94
2019-01-21T07:22:49.993Z,98251.21
2019-01-21T07:24:51.618Z,98256.23
2019-01-21T07:26:53.213Z,98260.91
2019-01-21T07:28:54.814Z,98264.33
2019-01-21T07:30:56.443Z,98264.86
2019-01-21T07:32:58.037Z,98265.75
2019-01-21T07:34:59.664Z,98264.01
2019-01-21T07:37:01.258Z,98263.15
2019-01-21T07:39:02.854Z,98266.94
2019-01-21T07:41:04.489Z,98262.73
2019-01-21T07:43:06.085Z,98255.28
2019-01-21T07:45:07.671Z,98262.31
2019-01-21T07:47:09.305Z,98264.72
2019-01-21T07:49:10.897Z,98264.44
2019-01-21T07:51:12.488Z,98264.98
2019-01-21T07:53:14.123Z,98262.58
2019-01-21T07:55:15.725Z,98258.04
2019-01-21T07:57:17.308Z,98264.24
2019-01-21T07:59:18.937Z,98274.33
2019-01-21T08:01:20.520Z,98253.57
2019-01-21T08:03:22.143Z,98255.47
2019-01-21T08:05:23.751Z,98252.42
2019-01-21T08:07:25.352Z,98257.57
2019-01-21T08:09:26.978Z,98256.02
2019-01-21T08:11:28.594Z,98249.84
2019-01-21T08:13:30.198Z,98250.05
2019-01-21T08:15:31.797Z,98253.33
2019-01-21T08:17:33.394Z,98251.55
2019-01-21T08:19:34.990Z,98252.19
2019-01-21T08:21:36.600Z,98249.16
2019-01-21T08:23:38.211Z,98251.23
2019-01-21T08:25:39.838Z,98250.74
2019-01-21T08:27:41.456Z,98209.34
2019-01-21T08:29:43.533Z,98254.87
2019-01-21T08:31:45.143Z,98248.91
2019-01-21T08:33:46.737Z,98254.45
2019-01-21T08:35:48.355Z,98252.77
2019-01-21T08:37:49.981Z,98247.39
2019-01-21T08:39:51.578Z,98252.97
2019-01-21T08:41:53.237Z,98258.59
2019-01-21T08:43:55.020Z,98260.02
2019-01-21T08:45:56.712Z,98263.53
2019-01-21T08:47:58.324Z,98261.94
2019-01-21T08:49:59.945Z,98259.50
2019-01-21T08:52:01.707Z,98251.45
2019-01-21T08:54:03.302Z,98252.84
2019-01-21T08:56:05.013Z,98253.31
2019-01-21T08:58:06.611Z,98261.78
2019-01-21T09:00:08.201Z,98255.86
2019-01-21T09:02:09.812Z,98254.69
2019-01-21T09:04:11.400Z,98240.45
2019-01-21T09:06:13.050Z,98256.47
2019-01-21T09:08:14.667Z,98253.96
2019-01-21T09:10:16.280Z,98256.52
2019-01-21T09:12:17.913Z,98262.47
2019-01-21T09:14:19.500Z,98264.17
2019-01-21T09:16:21.098Z,98259.12
2019-01-21T09:18:22.721Z,98259.64
2019-01-21T09:20:24.354Z,98266.92
2019-01-21T09:22:25.954Z,98266.13
2019-01-21T09:24:27.550Z,98270.47
2019-01-21T09:26:29.154Z,98274.78
2019-01-21T09:28:30.740Z,98276.80
2019-01-21T09:30:32.348Z,98276.66
2019-01-21T09:32:33.960Z,98283.34
2019-01-21T09:34:35.554Z,98276.53
2019-01-21T09:36:37.149Z,98277.09
2019-01-21T09:38:38.836Z,98267.45
2019-01-21T09:40:40.452Z,98275.72
2019-01-21T09:42:42.084Z,98261.80
2019-01-21T09:44:43.664Z,98266.36
2019-01-21T09:46:45.289Z,98263.84
2019-01-21T09:48:46.918Z,98256.56
2019-01-21T09:50:48.572Z,98259.58
2019-01-21T09:52:50.184Z,98260.96
2019-01-21T09:54:51.796Z,98254.95
2019-01-21T09:56:53.431Z,98260.69
2019-01-21T09:58:55.053Z,98261.33
2019-01-21T10:00:56.659Z,98255.03
2019-01-21T10:02:58.257Z,98257.59
2019-01-21T10:04:59.893Z,98245.92
2019-01-21T10:07:01.552Z,98254.50
2019-01-21T10:09:03.156Z,98257.17
2019-01-21T10:11:04.767Z,98255.45
2019-01-21T10:13:06.366Z,98257.98
2019-01-21T10:15:07.977Z,98256.27
2019-01-21T10:17:09.575Z,98250.31
2019-01-21T10:19:11.192Z,98250.70
2019-01-21T10:21:12.807Z,98252.70
2019-01-21T10:23:14.402Z,98245.30
2019-01-21T10:25:16.008Z,98249.84
2019-01-21T10:27:17.596Z,98240.59
2019-01-21T10:29:19.715Z,98242.28
2019-01-21T10:31:22.171Z,98240.22
2019-01-21T10:33:23.814Z,98238.56
2019-01-21T10:35:25.820Z,98239.55
2019-01-21T10:37:27.484Z,98242.06
2019-01-21T10:39:29.096Z,98239.22
2019-01-21T10:41:30.737Z,98232.52
2019-01-21T10:43:32.420Z,98233.37
2019-01-21T10:45:34.038Z,98212.39
2019-01-21T10:47:35.673Z,98208.81
2019-01-21T10:49:37.270Z,98225.71
2019-01-21T10:51:38.881Z,98227.00
2019-01-21T10:53:40.517Z,98228.17
2019-01-21T10:55:42.110Z,98221.23
2019-01-21T10:57:43.711Z,98216.80
2019-01-21T10:59:45.336Z,98214.75
2019-01-21T11:01:46.934Z,98221.28
2019-01-21T11:03:48.548Z,98214.09
2019-01-21T11:05:50.170Z,98211.92
2019-01-21T11:07:51.775Z,98212.73
2019-01-21T11:09:53.423Z,98205.53
2019-01-21T11:11:55.036Z,98204.60
2019-01-21T11:13:56.652Z,98204.64
2019-01-21T11:15:58.308Z,98200.72
2019-01-21T11:17:59.959Z,98199.33
2019-01-21T11:20:04.154Z,98198.62
2019-01-21T11:22:03.289Z,98198.76
2019-01-21T11:24:04.895Z,98196.18
2019-01-21T11:26:06.509Z,98196.91
2019-01-21T11:28:08.124Z,98197.72
2019-01-21T11:30:09.726Z,98190.73
2019-01-21T11:32:11.334Z,98185.39
2019-01-21T11:34:12.943Z,98190.15
2019-01-21T11:36:14.541Z,98191.05
2019-01-21T11:38:16.235Z,98183.62
2019-01-21T11:40:17.810Z,98178.78
2019-01-21T11:42:19.456Z,98177.02
2019-01-21T11:44:21.054Z,98175.14
2019-01-21T11:46:22.665Z,98177.91
2019-01-21T11:48:24.310Z,98167.19
2019-01-21T11:50:25.895Z,98168.30
2019-01-21T11:52:27.491Z,98165.94
2019-01-21T11:54:29.180Z,98168.77
2019-01-21T11:56:31.033Z,98160.98
2019-01-21T11:58:32.777Z,98160.23
2019-01-21T12:00:34.409Z,98158.95
2019-01-21T12:02:35.996Z,98143.94
2019-01-21T12:04:37.593Z,98156.25
2019-01-21T12:06:39.249Z,98157.23
2019-01-21T12:08:40.836Z,98149.56
2019-01-21T12:10:42.448Z,98145.41
2019-01-21T12:12:44.046Z,98142.14
2019-01-21T12:14:45.669Z,98138.19
2019-01-21T12:16:47.276Z,98140.97
2019-01-21T12:18:48.900Z,98141.26
2019-01-21T12:20:50.538Z,98120.70
2019-01-21T12:22:52.148Z,98132.20
2019-01-21T12:24:53.749Z,98126.30
2019-01-21T12:26:55.370Z,98121.38
2019-01-21T12:28:56.969Z,98118.96
2019-01-21T12:30:58.571Z,98123.16
2019-01-21T12:33:00.203Z,98124.66
2019-01-21T12:35:01.843Z,98116.83
2019-01-21T12:37:03.445Z,98116.65
2019-01-21T12:39:05.088Z,98114.08
2019-01-21T12:41:06.681Z,98110.91
2019-01-21T12:43:08.324Z,98107.38
2019-01-21T12:45:09.950Z,98105.68
2019-01-21T12:47:11.625Z,98098.42
2019-01-21T12:49:13.231Z,98102.22
2019-01-21T12:51:14.827Z,98105.68
2019-01-21T12:53:16.574Z,98096.23
2019-01-21T12:55:18.173Z,98097.56
2019-01-21T12:57:19.759Z,98059.23
2019-01-21T12:59:21.389Z,98098.88
2019-01-21T13:01:22.999Z,98091.62
2019-01-21T13:03:24.603Z,98091.59
2019-01-21T13:05:26.198Z,98086.89
2019-01-21T13:07:27.793Z,98083.91
2019-01-21T13:09:29.401Z,98087.41
2019-01-21T13:11:31.048Z,98081.91
2019-01-21T13:13:32.631Z,98083.33
2019-01-21T13:15:34.241Z,98081.98
2019-01-21T13:17:35.881Z,98081.27
2019-01-21T13:19:37.473Z,98077.03
2019-01-21T13:21:39.070Z,98075.74
2019-01-21T13:23:40.707Z,98075.30
2019-01-21T13:25:42.302Z,98074.16
2019-01-21T13:27:43.937Z,98073.77
2019-01-21T13:29:45.538Z,98069.12
2019-01-21T13:31:47.148Z,98066.21
2019-01-21T13:33:48.746Z,98063.23
2019-01-21T13:35:50.375Z,98065.78
2019-01-21T13:37:51.969Z,98062.02
2019-01-21T13:39:53.576Z,98066.73
2019-01-21T13:41:55.179Z,98064.22
2019-01-21T13:43:56.817Z,98056.64
2019-01-21T13:45:58.409Z,98058.34
2019-01-21T13:48:00.008Z,98055.01
2019-01-21T13:50:01.642Z,98054.64
2019-01-21T13:52:03.251Z,98047.88
2019-01-21T13:54:04.846Z,98050.37
2019-01-21T13:56:06.487Z,98048.30
2019-01-21T13:58:08.083Z,98044.77
2019-01-21T14:00:09.677Z,98041.75
2019-01-21T14:02:11.314Z,98038.35
2019-01-21T14:04:12.906Z,98044.75
2019-01-21T14:06:14.501Z,98015.12
2019-01-21T14:08:16.135Z,98037.42
2019-01-21T14:10:17.730Z,98038.22
2019-01-21T14:12:19.359Z,98030.09
2019-01-21T14:14:20.964Z,98031.37
2019-01-21T14:16:22.580Z,98027.45
2019-01-21T14:18:24.530Z,98024.05
2019-01-21T14:20:26.196Z,98020.22
2019-01-21T14:22:27.817Z,98017.16
2019-01-21T14:24:29.414Z,98013.25
2019-01-21T14:26:31.024Z,98013.17
2019-01-21T14:28:32.622Z,98009.42
2019-01-21T14:30:34.248Z,98014.08
2019-01-21T14:32:35.841Z,98015.31
2019-01-21T14:34:37.438Z,98008.91
2019-01-21T14:36:39.034Z,98005.92
2019-01-21T14:38:40.678Z,98008.55
2019-01-21T14:40:42.283Z,98003.85
2019-01-21T14:42:43.882Z,98001.70
2019-01-21T14:44:45.528Z,97995.66
2019-01-21T14:46:47.125Z,97999.45
2019-01-21T14:48:48.732Z,97996.89
2019-01-21T14:50:50.739Z,97993.52
2019-01-21T14:52:52.025Z,97979.69
2019-01-21T14:54:53.659Z,98001.56
2019-01-21T14:56:55.301Z,97996.08
2019-01-21T14:58:56.906Z,97999.00
2019-01-21T15:00:58.554Z,98011.83
2019-01-21T15:03:00.168Z,98011.37
2019-01-21T15:05:01.843Z,98007.98
2019-01-21T15:07:03.479Z,98003.36
2019-01-21T15:09:05.104Z,98001.20
2019-01-21T15:11:06.811Z,97997.38
2019-01-21T15:13:08.498Z,97988.92
2019-01-21T15:15:10.164Z,97994.05
2019-01-21T15:17:11.728Z,97990.20
2019-01-21T15:19:13.449Z,97995.30
2019-01-21T15:21:15.046Z,97990.62
2019-01-21T15:23:16.670Z,97988.42
2019-01-21T15:25:18.304Z,97987.16
2019-01-21T15:27:20.018Z,97989.72
2019-01-21T15:29:21.624Z,97952.86
2019-01-21T15:31:23.353Z,97988.49
2019-01-21T15:33:25.043Z,97991.56
2019-01-21T15:35:26.623Z,97967.55
2019-01-21T15:37:28.268Z,97999.52
2019-01-21T15:39:29.967Z,97998.72
2019-01-21T15:41:31.622Z,97996.11
2019-01-21T15:43:33.279Z,98003.44
2019-01-21T15:45:34.981Z,97994.19
2019-01-21T15:47:36.581Z,97996.14
2019-01-21T15:49:38.195Z,98006.38
2019-01-21T15:51:39.808Z,98009.73
2019-01-21T15:53:41.415Z,98007.47
2019-01-21T15:55:43.014Z,98006.42
2019-01-21T15:57:44.628Z,98005.28
2019-01-21T15:59:46.212Z,98003.17
2019-01-21T16:01:47.815Z,98007.42
2019-01-21T16:03:49.436Z,98007.72
2019-01-21T16:05:51.034Z,98011.39
2019-01-21T16:07:52.658Z,98015.99
2019-01-21T16:09:54.250Z,98014.50
2019-01-21T16:11:55.855Z,98014.30
2019-01-21T16:13:57.494Z,98011.63
2019-01-21T16:15:59.477Z,98021.31
2019-01-21T16:18:01.118Z,98019.03
2019-01-21T16:20:02.726Z,98013.34
2019-01-21T16:22:04.330Z,98014.92
2019-01-21T16:24:05.932Z,98022.92
2019-01-21T16:26:07.526Z,98042.38
2019-01-21T16:28:09.136Z,98019.72
2019-01-21T16:30:10.938Z,98021.86
2019-01-21T16:32:12.530Z,98027.76
2019-01-21T16:34:14.157Z,98021.36
2019-01-21T16:36:15.824Z,98014.88
2019-01-21T16:38:17.462Z,98008.77
2019-01-21T16:40:19.253Z,97998.94
2019-01-21T16:42:20.955Z,98006.12
2019-01-21T16:44:22.554Z,97984.25
2019-01-21T16:46:24.164Z,97968.24
2019-01-21T16:48:25.836Z,97995.81
2019-01-21T16:50:27.448Z,98001.77
2019-01-21T16:52:29.046Z,97996.30
2019-01-21T16:54:30.661Z,98000.42
2019-01-21T16:56:32.247Z,98001.69
2019-01-21T16:58:33.847Z,98011.00
2019-01-21T17:00:35.484Z,98006.31
2019-01-21T17:02:37.074Z,98006.80
2019-01-21T17:04:38.696Z,97999.21
2019-01-21T17:06:40.340Z,97996.54
2019-01-21T17:08:41.929Z,97996.23
2019-01-21T17:10:43.818Z,97995.00
2019-01-21T17:12:45.451Z,97994.22
2019-01-21T17:14:47.111Z,97996.87
2019-01-21T17:16:48.889Z,97998.22
2019-01-21T17:18:50.594Z,97992.27
2019-01-21T17:20:52.255Z,97999.18
2019-01-21T17:22:53.872Z,98001.78
2019-01-21T17:24:55.576Z,97989.94
2019-01-21T17:26:57.188Z,97952.94
2019-01-21T17:28:58.840Z,97987.02
2019-01-21T17:31:00.484Z,97989.64
2019-01-21T17:33:02.133Z,97991.00
2019-01-21T17:35:03.962Z,97984.69
2019-01-21T17:37:05.572Z,97981.72
2019-01-21T17:39:07.223Z,97984.76
2019-01-21T17:41:08.813Z,97987.75
2019-01-21T17:43:10.419Z,97985.64
2019-01-21T17:45:12.000Z,97986.97
2019-01-21T17:47:13.636Z,97984.36
2019-01-21T17:49:15.230Z,97987.75
2019-01-21T17:51:16.821Z,97989.95
2019-01-21T17:53:18.427Z,97986.55
2019-01-21T17:55:20.021Z,97985.70
2019-01-21T17:57:21.603Z,97990.38
2019-01-21T17:59:23.198Z,97989.45
2019-01-21T18:01:24.789Z,97987.70
2019-01-21T18:03:26.444Z,97988.16
2019-01-21T18:05:28.056Z,97992.35
2019-01-21T18:07:29.663Z,97991.86
2019-01-21T18:09:31.295Z,97990.95
2019-01-21T18:11:32.904Z,97992.58
2019-01-21T18:13:34.509Z,97992.98
2019-01-21T18:15:36.102Z,97987.86
2019-01-21T18:17:37.721Z,97979.28
2019-01-21T18:19:39.355Z,97975.42
2019-01-21T18:21:41.060Z,97980.89
2019-01-21T18:23:42.657Z,97979.19
2019-01-21T18:25:44.263Z,97968.47
2019-01-21T18:27:45.898Z,97972.29
2019-01-21T18:29:47.493Z,97967.23
2019-01-21T18:31:49.104Z,97946.31
2019-01-21T18:33:50.756Z,97966.81
2019-01-21T18:35:52.358Z,97965.61
2019-01-21T18:37:53.953Z,97964.75
2019-01-21T18:39:55.788Z,97962.20
2019-01-21T18:41:57.400Z,97956.33
2019-01-21T18:43:58.997Z,97950.42
2019-01-21T18:46:00.608Z,97952.05
2019-01-21T18:48:02.220Z,97948.56
2019-01-21T18:50:03.872Z,97954.45
2019-01-21T18:52:05.469Z,97942.83
2019-01-21T18:54:07.051Z,97938.91
2019-01-21T18:56:08.659Z,97940.20
2019-01-21T18:58:10.256Z,97936.28
2019-01-21T19:00:11.956Z,97938.07
2019-01-21T19:02:13.567Z,97944.92
2019-01-21T19:04:15.183Z,97941.43
2019-01-21T19:06:16.778Z,97940.28
2019-01-21T19:08:18.387Z,97944.55
2019-01-21T19:10:19.986Z,97945.05
2019-01-21T19:12:21.610Z,97937.82
2019-01-21T19:14:23.243Z,97923.91
2019-01-21T19:16:24.891Z,97940.80
2019-01-21T19:18:26.500Z,97945.13
2019-01-21T19:20:28.094Z,97942.14
2019-01-21T19:22:29.740Z,97941.37
2019-01-21T19:24:31.342Z,97931.20
2019-01-21T19:26:32.939Z,97932.77
2019-01-21T19:28:34.547Z,97940.11
2019-01-21T19:30:36.168Z,97937.13
2019-01-21T19:32:37.776Z,97943.87
2019-01-21T19:34:39.421Z,97937.91
2019-01-21T19:36:41.304Z,97933.75
2019-01-21T19:38:42.921Z,97939.08
2019-01-21T19:40:44.534Z,97942.81
2019-01-21T19:42:46.137Z,97935.48
2019-01-21T19:44:47.758Z,97933.00
2019-01-21T19:46:49.372Z,97922.64
2019-01-21T19:48:50.967Z,97927.95
2019-01-21T19:50:52.575Z,97925.33
2019-01-21T19:52:54.163Z,97925.61
2019-01-21T19:54:55.769Z,97927.66
2019-01-21T19:56:57.406Z,97927.03
2019-01-21T19:58:59.015Z,97920.78
2019-01-21T20:01:00.638Z,97914.45
2019-01-21T20:03:02.248Z,97910.13
2019-01-21T20:05:04.715Z,97911.75
2019-01-21T20:07:06.342Z,97913.37
2019-01-21T20:09:07.956Z,97905.59
2019-01-21T20:11:09.667Z,97907.08
2019-01-21T20:13:11.323Z,97903.97
2019-01-21T20:15:13.014Z,97900.39
2019-01-21T20:17:14.619Z,97899.80
2019-01-21T20:19:16.223Z,97903.94
2019-01-21T20:21:17.822Z,97905.06
2019-01-21T20:23:19.414Z,97910.09
2019-01-21T20:25:21.032Z,97913.37
2019-01-21T20:27:22.627Z,97915.40
2019-01-21T20:29:24.215Z,97910.14
2019-01-21T20:31:25.814Z,97900.16
2019-01-21T20:33:27.414Z,97905.47
2019-01-21T20:35:29.016Z,97896.70
2019-01-21T20:37:30.650Z,97895.77
2019-01-21T20:39:32.303Z,97899.80
2019-01-21T20:41:33.916Z,97901.33
2019-01-21T20:43:35.503Z,97902.48
2019-01-21T20:45:37.105Z,97900.75
2019-01-21T20:47:38.706Z,97893.08
2019-01-21T20:49:40.301Z,97887.59
2019-01-21T20:51:41.941Z,97889.76
2019-01-21T20:53:43.609Z,97889.74
2019-01-21T20:55:45.284Z,97886.34
2019-01-21T20:57:46.940Z,97890.18
2019-01-21T20:59:48.526Z,97884.22
2019-01-21T21:01:50.161Z,97885.96
2019-01-21T21:03:51.759Z,97887.30
2019-01-21T21:05:53.369Z,97883.55
2019-01-21T21:07:55.005Z,97880.59
2019-01-21T21:09:56.605Z,97878.62
2019-01-21T21:11:58.216Z,97879.63
2019-01-21T21:13:59.859Z,97881.99
2019-01-21T21:16:01.467Z,97878.84
2019-01-21T21:18:03.066Z,97874.91
2019-01-21T21:20:04.692Z,97870.45
2019-01-21T21:22:06.303Z,97866.47
2019-01-21T21:24:07.912Z,97860.75
2019-01-21T21:26:09.522Z,97868.61
2019-01-21T21:28:11.146Z,97874.11
2019-01-21T21:30:12.759Z,97882.79
2019-01-21T21:32:14.390Z,97893.99
2019-01-21T21:34:16.110Z,97888.49
2019-01-21T21:36:17.772Z,97880.95
2019-01-21T21:38:19.430Z,97883.92
2019-01-21T21:40:21.085Z,97893.75
2019-01-21T21:42:22.705Z,97894.67
2019-01-21T21:44:24.310Z,97903.60
2019-01-21T21:46:25.922Z,97895.49
2019-01-21T21:48:31.730Z,97899.69
2019-01-21T21:50:29.323Z,97902.62
2019-01-21T21:52:30.962Z,97903.47
2019-01-21T21:54:32.590Z,97887.55
2019-01-21T21:56:34.213Z,97900.48
2019-01-21T21:58:35.812Z,97904.00
2019-01-21T22:00:37.431Z,97898.03
2019-01-21T22:02:39.033Z,97892.97
2019-01-21T22:04:40.629Z,97887.09
2019-01-21T22:06:42.292Z,97894.44
2019-01-21T22:08:43.927Z,97886.73
2019-01-21T22:10:45.577Z,97881.17
2019-01-21T22:12:47.195Z,97875.73
2019-01-21T22:14:48.797Z,97875.93
2019-01-21T22:16:50.431Z,97878.70
2019-01-21T22:18:52.068Z,97870.05
2019-01-21T22:20:53.670Z,97868.66
2019-01-21T22:22:55.311Z,97870.84
2019-01-21T22:24:56.913Z,97874.24
2019-01-21T22:26:58.539Z,97870.55
2019-01-21T22:29:00.163Z,97867.03
2019-01-21T22:31:01.774Z,97864.23
2019-01-21T22:33:03.411Z,97866.50
2019-01-21T22:35:05.061Z,97865.35
2019-01-21T22:37:06.694Z,97865.35
2019-01-21T22:39:08.325Z,97861.25
2019-01-21T22:41:09.965Z,97865.69
2019-01-21T22:43:11.582Z,97858.59
2019-01-21T22:45:13.277Z,97861.15
2019-01-21T22:47:14.881Z,97866.84
2019-01-21T22:49:16.498Z,97864.07
2019-01-21T22:51:18.101Z,97858.94
2019-01-21T22:53:19.719Z,97854.63
2019-01-21T22:55:21.337Z,97850.05
2019-01-21T22:57:22.999Z,97858.35
2019-01-21T22:59:24.605Z,97849.27
2019-01-21T23:01:26.218Z,97848.56
2019-01-21T23:03:27.835Z,97842.80
2019-01-21T23:05:29.455Z,97844.27
2019-01-21T23:07:31.108Z,97840.66
2019-01-21T23:09:32.717Z,97843.00
2019-01-21T23:11:34.351Z,97834.38
2019-01-21T23:13:36.001Z,97862.44
2019-01-21T23:15:37.611Z,97839.62
2019-01-21T23:17:39.242Z,97840.07
2019-01-21T23:19:40.888Z,97846.45
2019-01-21T23:21:42.538Z,97846.53
2019-01-21T23:23:44.160Z,97833.84
2019-01-21T23:25:45.774Z,97841.99
2019-01-21T23:27:47.426Z,97835.33
2019-01-21T23:29:49.030Z,97833.85
2019-01-21T23:31:50.634Z,97836.28
2019-01-21T23:33:52.251Z,97832.00
2019-01-21T23:35:53.857Z,97835.89
2019-01-21T23:37:55.478Z,97833.33
2019-01-21T23:39:57.135Z,97827.63
2019-01-21T23:41:58.825Z,97829.66
2019-01-21T23:44:00.456Z,97830.41
2019-01-21T23:46:02.716Z,97823.30
2019-01-21T23:48:04.389Z,97824.34